sensor_id;sensor_type;location;lat;lon;timestamp;temperature;humidity
8043;DHT22;4064;48.132;11.366;2023-11-19T00:00:31;4.40;99.90
8043;DHT22;4064;48.132;11.366;2023-11-19T00:02:56;4.40;99.90
8043;DHT22;4064;48.132;11.366;2023-11-19T00:05:22;4.40;99.90
8043;DHT22;4064;48.132;11.366;2023-11-19T00:07:48;4.40;99.90
8043;DHT22;4064;48.132;11.366;2023-11-19T00:10:15;4.40;99.90
8043;DHT22;4064;48.132;11.366;2023-11-19T00:12:47;4.50;99.90
8043;DHT22;4064;48.132;11.366;2023-11-19T00:15:14;4.60;99.90
8043;DHT22;4064;48.132;11.366;2023-11-19T00:17:42;4.60;99.90
8043;DHT22;4064;48.132;11.366;2023-11-19T00:20:15;4.60;99.90
8043;DHT22;4064;48.132;11.366;2023-11-19T00:22:41;4.70;99.90
8043;DHT22;4064;48.132;11.366;2023-11-19T00:25:08;4.70;99.90
8043;DHT22;4064;48.132;11.366;2023-11-19T00:27:35;4.80;99.90
8043;DHT22;4064;48.132;11.366;2023-11-19T00:30:01;4.90;99.90
8043;DHT22;4064;48.132;11.366;2023-11-19T00:32:26;5.00;99.90
8043;DHT22;4064;48.132;11.366;2023-11-19T00:34:52;4.90;99.90
8043;DHT22;4064;48.132;11.366;2023-11-19T00:37:18;5.00;99.90
8043;DHT22;4064;48.132;11.366;2023-11-19T00:39:43;5.00;99.90
8043;DHT22;4064;48.132;11.366;2023-11-19T00:42:10;5.00;99.90
8043;DHT22;4064;48.132;11.366;2023-11-19T00:44:36;5.10;99.90
8043;DHT22;4064;48.132;11.366;2023-11-19T00:47:02;5.10;99.90
8043;DHT22;4064;48.132;11.366;2023-11-19T00:49:28;5.10;99.90
8043;DHT22;4064;48.132;11.366;2023-11-19T00:51:54;5.20;99.90
8043;DHT22;4064;48.132;11.366;2023-11-19T00:54:20;5.20;99.90
8043;DHT22;4064;48.132;11.366;2023-11-19T00:56:45;5.20;99.90
8043;DHT22;4064;48.132;11.366;2023-11-19T00:59:11;5.20;99.90
8043;DHT22;4064;48.132;11.366;2023-11-19T01:01:37;5.30;99.90
8043;DHT22;4064;48.132;11.366;2023-11-19T01:04:03;5.40;99.90
8043;DHT22;4064;48.132;11.366;2023-11-19T01:06:32;5.40;99.90
8043;DHT22;4064;48.132;11.366;2023-11-19T01:08:58;5.40;99.90
8043;DHT22;4064;48.132;11.366;2023-11-19T01:11:24;5.40;99.90
8043;DHT22;4064;48.132;11.366;2023-11-19T01:13:51;5.40;99.90
8043;DHT22;4064;48.132;11.366;2023-11-19T01:16:18;5.40;99.90
8043;DHT22;4064;48.132;11.366;2023-11-19T01:18:46;5.50;99.90
8043;DHT22;4064;48.132;11.366;2023-11-19T01:21:12;5.50;99.90
8043;DHT22;4064;48.132;11.366;2023-11-19T01:23:37;5.50;99.90
8043;DHT22;4064;48.132;11.366;2023-11-19T01:26:03;5.50;99.90
8043;DHT22;4064;48.132;11.366;2023-11-19T01:28:31;5.60;99.90
8043;DHT22;4064;48.132;11.366;2023-11-19T01:30:56;5.60;99.90
8043;DHT22;4064;48.132;11.366;2023-11-19T01:33:22;5.70;99.90
8043;DHT22;4064;48.132;11.366;2023-11-19T01:35:48;5.70;99.90
8043;DHT22;4064;48.132;11.366;2023-11-19T01:38:14;5.80;99.90
8043;DHT22;4064;48.132;11.366;2023-11-19T01:40:40;5.80;99.90
8043;DHT22;4064;48.132;11.366;2023-11-19T01:43:05;5.80;99.90
8043;DHT22;4064;48.132;11.366;2023-11-19T01:45:31;5.90;99.90
8043;DHT22;4064;48.132;11.366;2023-11-19T01:48:01;5.90;99.90
8043;DHT22;4064;48.132;11.366;2023-11-19T01:50:29;6.00;99.90
8043;DHT22;4064;48.132;11.366;2023-11-19T01:52:56;6.00;99.90
8043;DHT22;4064;48.132;11.366;2023-11-19T01:55:27;6.10;99.90
8043;DHT22;4064;48.132;11.366;2023-11-19T01:57:59;6.20;99.90
8043;DHT22;4064;48.132;11.366;2023-11-19T02:00:27;6.30;99.90
8043;DHT22;4064;48.132;11.366;2023-11-19T02:02:52;6.40;99.90
8043;DHT22;4064;48.132;11.366;2023-11-19T02:05:20;6.50;99.90
8043;DHT22;4064;48.132;11.366;2023-11-19T02:07:47;6.70;99.90
8043;DHT22;4064;48.132;11.366;2023-11-19T02:10:12;6.80;99.90
8043;DHT22;4064;48.132;11.366;2023-11-19T02:12:42;6.90;99.90
8043;DHT22;4064;48.132;11.366;2023-11-19T02:15:09;6.90;99.90
8043;DHT22;4064;48.132;11.366;2023-11-19T02:17:35;7.00;99.90
8043;DHT22;4064;48.132;11.366;2023-11-19T02:20:04;7.00;99.90
8043;DHT22;4064;48.132;11.366;2023-11-19T02:22:34;7.10;99.90
8043;DHT22;4064;48.132;11.366;2023-11-19T02:25:04;7.10;99.90
8043;DHT22;4064;48.132;11.366;2023-11-19T02:27:48;7.20;99.90
8043;DHT22;4064;48.132;11.366;2023-11-19T02:30:16;7.20;99.90
8043;DHT22;4064;48.132;11.366;2023-11-19T02:32:42;7.30;99.90
8043;DHT22;4064;48.132;11.366;2023-11-19T02:35:08;7.40;99.90
8043;DHT22;4064;48.132;11.366;2023-11-19T02:37:34;7.40;99.90
8043;DHT22;4064;48.132;11.366;2023-11-19T02:40:00;7.40;99.90
8043;DHT22;4064;48.132;11.366;2023-11-19T02:42:28;7.40;99.90
8043;DHT22;4064;48.132;11.366;2023-11-19T02:44:54;7.40;99.90
8043;DHT22;4064;48.132;11.366;2023-11-19T02:47:20;7.50;99.90
8043;DHT22;4064;48.132;11.366;2023-11-19T02:49:47;7.60;99.90
8043;DHT22;4064;48.132;11.366;2023-11-19T02:52:13;7.60;99.90
8043;DHT22;4064;48.132;11.366;2023-11-19T02:54:40;7.70;99.90
8043;DHT22;4064;48.132;11.366;2023-11-19T02:57:07;7.70;99.90
8043;DHT22;4064;48.132;11.366;2023-11-19T02:59:38;7.70;99.90
8043;DHT22;4064;48.132;11.366;2023-11-19T03:02:05;7.80;99.90
8043;DHT22;4064;48.132;11.366;2023-11-19T03:04:37;7.70;99.90
8043;DHT22;4064;48.132;11.366;2023-11-19T03:07:06;7.90;99.90
8043;DHT22;4064;48.132;11.366;2023-11-19T03:09:35;7.90;99.90
8043;DHT22;4064;48.132;11.366;2023-11-19T03:12:01;8.00;99.90
8043;DHT22;4064;48.132;11.366;2023-11-19T03:14:27;8.10;99.90
8043;DHT22;4064;48.132;11.366;2023-11-19T03:16:53;8.20;99.90
8043;DHT22;4064;48.132;11.366;2023-11-19T03:19:19;8.20;99.90
8043;DHT22;4064;48.132;11.366;2023-11-19T03:21:45;8.30;99.90
8043;DHT22;4064;48.132;11.366;2023-11-19T03:24:13;8.40;99.90
8043;DHT22;4064;48.132;11.366;2023-11-19T03:26:40;8.40;99.90
8043;DHT22;4064;48.132;11.366;2023-11-19T03:29:08;8.50;99.90
8043;DHT22;4064;48.132;11.366;2023-11-19T03:31:33;8.60;99.90
8043;DHT22;4064;48.132;11.366;2023-11-19T03:33:59;8.60;99.90
8043;DHT22;4064;48.132;11.366;2023-11-19T03:36:25;8.70;99.90
8043;DHT22;4064;48.132;11.366;2023-11-19T03:38:50;8.70;99.90
8043;DHT22;4064;48.132;11.366;2023-11-19T03:41:17;8.70;99.90
8043;DHT22;4064;48.132;11.366;2023-11-19T03:43:43;8.80;99.90
8043;DHT22;4064;48.132;11.366;2023-11-19T03:46:21;8.80;99.90
8043;DHT22;4064;48.132;11.366;2023-11-19T03:48:50;8.80;99.90
8043;DHT22;4064;48.132;11.366;2023-11-19T03:51:16;8.80;99.90
8043;DHT22;4064;48.132;11.366;2023-11-19T03:53:43;8.70;99.90
8043;DHT22;4064;48.132;11.366;2023-11-19T03:56:10;8.80;99.90
8043;DHT22;4064;48.132;11.366;2023-11-19T03:58:37;8.80;99.90
8043;DHT22;4064;48.132;11.366;2023-11-19T04:01:04;8.80;99.90
8043;DHT22;4064;48.132;11.366;2023-11-19T04:03:29;8.80;99.90
8043;DHT22;4064;48.132;11.366;2023-11-19T04:05:55;8.80;99.90
8043;DHT22;4064;48.132;11.366;2023-11-19T04:08:21;8.80;99.90
8043;DHT22;4064;48.132;11.366;2023-11-19T04:10:47;8.90;99.90
8043;DHT22;4064;48.132;11.366;2023-11-19T04:13:13;8.90;99.90
8043;DHT22;4064;48.132;11.366;2023-11-19T04:15:39;9.00;99.90
8043;DHT22;4064;48.132;11.366;2023-11-19T04:18:05;9.00;99.90
8043;DHT22;4064;48.132;11.366;2023-11-19T04:20:30;9.00;99.90
8043;DHT22;4064;48.132;11.366;2023-11-19T04:22:57;8.90;99.90
8043;DHT22;4064;48.132;11.366;2023-11-19T04:25:23;9.00;99.90
8043;DHT22;4064;48.132;11.366;2023-11-19T04:27:51;9.00;99.90
8043;DHT22;4064;48.132;11.366;2023-11-19T04:30:17;9.00;99.90
8043;DHT22;4064;48.132;11.366;2023-11-19T04:32:44;9.00;99.90
8043;DHT22;4064;48.132;11.366;2023-11-19T04:35:10;9.10;99.90
8043;DHT22;4064;48.132;11.366;2023-11-19T04:37:36;9.10;99.90
8043;DHT22;4064;48.132;11.366;2023-11-19T04:40:03;9.10;99.90
8043;DHT22;4064;48.132;11.366;2023-11-19T04:42:29;9.00;99.90
8043;DHT22;4064;48.132;11.366;2023-11-19T04:44:55;9.10;99.90
8043;DHT22;4064;48.132;11.366;2023-11-19T04:47:21;9.10;99.90
8043;DHT22;4064;48.132;11.366;2023-11-19T04:49:46;9.10;99.90
8043;DHT22;4064;48.132;11.366;2023-11-19T04:52:12;9.20;99.90
8043;DHT22;4064;48.132;11.366;2023-11-19T04:54:41;9.20;99.90
8043;DHT22;4064;48.132;11.366;2023-11-19T04:57:08;9.20;99.90
8043;DHT22;4064;48.132;11.366;2023-11-19T04:59:36;9.20;99.90
8043;DHT22;4064;48.132;11.366;2023-11-19T05:02:02;9.20;99.90
8043;DHT22;4064;48.132;11.366;2023-11-19T05:04:29;9.20;99.90
8043;DHT22;4064;48.132;11.366;2023-11-19T05:06:55;9.20;99.90
8043;DHT22;4064;48.132;11.366;2023-11-19T05:09:21;9.20;99.90
8043;DHT22;4064;48.132;11.366;2023-11-19T05:11:46;9.10;99.90
8043;DHT22;4064;48.132;11.366;2023-11-19T05:14:12;9.10;99.90
8043;DHT22;4064;48.132;11.366;2023-11-19T05:16:41;9.10;99.90
8043;DHT22;4064;48.132;11.366;2023-11-19T05:19:08;9.20;99.90
8043;DHT22;4064;48.132;11.366;2023-11-19T05:21:34;9.20;99.90
8043;DHT22;4064;48.132;11.366;2023-11-19T05:24:02;9.20;99.90
8043;DHT22;4064;48.132;11.366;2023-11-19T05:26:30;9.20;99.90
8043;DHT22;4064;48.132;11.366;2023-11-19T05:28:56;9.20;99.90
8043;DHT22;4064;48.132;11.366;2023-11-19T05:31:21;9.20;99.90
8043;DHT22;4064;48.132;11.366;2023-11-19T05:33:47;9.10;99.90
8043;DHT22;4064;48.132;11.366;2023-11-19T05:36:13;9.20;99.90
8043;DHT22;4064;48.132;11.366;2023-11-19T05:38:39;9.10;99.90
8043;DHT22;4064;48.132;11.366;2023-11-19T05:41:05;9.10;99.90
8043;DHT22;4064;48.132;11.366;2023-11-19T05:43:32;9.10;99.90
8043;DHT22;4064;48.132;11.366;2023-11-19T05:45:58;9.10;99.90
8043;DHT22;4064;48.132;11.366;2023-11-19T05:48:26;9.10;99.90
8043;DHT22;4064;48.132;11.366;2023-11-19T05:50:51;9.10;99.90
8043;DHT22;4064;48.132;11.366;2023-11-19T05:53:17;9.10;99.90
8043;DHT22;4064;48.132;11.366;2023-11-19T05:55:43;9.10;99.90
8043;DHT22;4064;48.132;11.366;2023-11-19T05:58:15;9.10;99.90
8043;DHT22;4064;48.132;11.366;2023-11-19T06:00:41;9.10;99.90
8043;DHT22;4064;48.132;11.366;2023-11-19T06:03:07;9.10;99.90
8043;DHT22;4064;48.132;11.366;2023-11-19T06:05:33;9.10;99.90
8043;DHT22;4064;48.132;11.366;2023-11-19T06:07:59;9.10;99.90
8043;DHT22;4064;48.132;11.366;2023-11-19T06:10:25;9.10;99.90
8043;DHT22;4064;48.132;11.366;2023-11-19T06:12:58;9.10;99.90
8043;DHT22;4064;48.132;11.366;2023-11-19T06:15:25;9.20;99.90
8043;DHT22;4064;48.132;11.366;2023-11-19T06:17:52;9.20;99.90
8043;DHT22;4064;48.132;11.366;2023-11-19T06:20:17;9.20;99.90
8043;DHT22;4064;48.132;11.366;2023-11-19T06:22:45;9.20;99.90
8043;DHT22;4064;48.132;11.366;2023-11-19T06:25:11;9.20;99.90
8043;DHT22;4064;48.132;11.366;2023-11-19T06:27:40;9.20;99.90
8043;DHT22;4064;48.132;11.366;2023-11-19T06:30:06;9.20;99.90
8043;DHT22;4064;48.132;11.366;2023-11-19T06:32:32;9.30;99.90
8043;DHT22;4064;48.132;11.366;2023-11-19T06:34:58;9.30;99.90
8043;DHT22;4064;48.132;11.366;2023-11-19T06:37:24;9.30;99.90
8043;DHT22;4064;48.132;11.366;2023-11-19T06:39:49;9.40;99.90
8043;DHT22;4064;48.132;11.366;2023-11-19T06:42:15;9.40;99.90
8043;DHT22;4064;48.132;11.366;2023-11-19T06:44:41;9.40;99.90
8043;DHT22;4064;48.132;11.366;2023-11-19T06:47:06;9.40;99.90
8043;DHT22;4064;48.132;11.366;2023-11-19T06:49:32;9.40;99.90
8043;DHT22;4064;48.132;11.366;2023-11-19T06:51:58;9.40;99.90
8043;DHT22;4064;48.132;11.366;2023-11-19T06:54:24;9.40;99.90
8043;DHT22;4064;48.132;11.366;2023-11-19T06:56:50;9.40;99.90
8043;DHT22;4064;48.132;11.366;2023-11-19T06:59:16;9.40;99.90
8043;DHT22;4064;48.132;11.366;2023-11-19T07:01:42;9.50;99.90
8043;DHT22;4064;48.132;11.366;2023-11-19T07:04:11;9.40;99.90
8043;DHT22;4064;48.132;11.366;2023-11-19T07:06:38;9.50;99.90
8043;DHT22;4064;48.132;11.366;2023-11-19T07:09:05;9.60;99.90
8043;DHT22;4064;48.132;11.366;2023-11-19T07:11:40;9.60;99.90
8043;DHT22;4064;48.132;11.366;2023-11-19T07:14:07;9.60;99.90
8043;DHT22;4064;48.132;11.366;2023-11-19T07:16:34;9.60;99.90
8043;DHT22;4064;48.132;11.366;2023-11-19T07:19:00;9.70;99.90
8043;DHT22;4064;48.132;11.366;2023-11-19T07:21:26;9.70;99.90
8043;DHT22;4064;48.132;11.366;2023-11-19T07:23:57;9.70;99.90
8043;DHT22;4064;48.132;11.366;2023-11-19T07:26:23;9.70;99.90
8043;DHT22;4064;48.132;11.366;2023-11-19T07:28:49;9.80;99.90
8043;DHT22;4064;48.132;11.366;2023-11-19T07:31:15;9.80;99.90
8043;DHT22;4064;48.132;11.366;2023-11-19T07:33:41;9.90;99.90
8043;DHT22;4064;48.132;11.366;2023-11-19T07:36:10;9.90;99.90
8043;DHT22;4064;48.132;11.366;2023-11-19T07:38:36;9.90;99.90
8043;DHT22;4064;48.132;11.366;2023-11-19T07:41:02;9.90;99.90
8043;DHT22;4064;48.132;11.366;2023-11-19T07:43:28;9.90;99.90
8043;DHT22;4064;48.132;11.366;2023-11-19T07:45:53;9.90;99.90
8043;DHT22;4064;48.132;11.366;2023-11-19T07:48:19;10.00;99.90
8043;DHT22;4064;48.132;11.366;2023-11-19T07:50:49;10.00;99.90
8043;DHT22;4064;48.132;11.366;2023-11-19T07:53:18;10.00;99.90
8043;DHT22;4064;48.132;11.366;2023-11-19T07:55:44;10.00;99.90
8043;DHT22;4064;48.132;11.366;2023-11-19T07:58:11;10.10;99.90
8043;DHT22;4064;48.132;11.366;2023-11-19T08:00:37;10.10;99.90
8043;DHT22;4064;48.132;11.366;2023-11-19T08:03:03;10.10;99.90
8043;DHT22;4064;48.132;11.366;2023-11-19T08:05:30;10.10;99.90
8043;DHT22;4064;48.132;11.366;2023-11-19T08:07:56;10.20;99.90
8043;DHT22;4064;48.132;11.366;2023-11-19T08:10:22;10.20;99.90
8043;DHT22;4064;48.132;11.366;2023-11-19T08:12:48;10.20;99.90
8043;DHT22;4064;48.132;11.366;2023-11-19T08:15:14;10.20;99.90
8043;DHT22;4064;48.132;11.366;2023-11-19T08:17:41;10.30;99.90
8043;DHT22;4064;48.132;11.366;2023-11-19T08:20:08;10.30;99.90
8043;DHT22;4064;48.132;11.366;2023-11-19T08:22:37;10.40;99.90
8043;DHT22;4064;48.132;11.366;2023-11-19T08:25:05;10.50;99.90
8043;DHT22;4064;48.132;11.366;2023-11-19T08:27:31;10.50;99.90
8043;DHT22;4064;48.132;11.366;2023-11-19T08:29:57;10.60;99.90
8043;DHT22;4064;48.132;11.366;2023-11-19T08:32:26;10.60;99.90
8043;DHT22;4064;48.132;11.366;2023-11-19T08:34:52;10.60;99.90
8043;DHT22;4064;48.132;11.366;2023-11-19T08:37:18;10.60;99.90
8043;DHT22;4064;48.132;11.366;2023-11-19T08:39:46;10.60;99.90
8043;DHT22;4064;48.132;11.366;2023-11-19T08:42:12;10.60;99.90
8043;DHT22;4064;48.132;11.366;2023-11-19T08:44:38;10.70;99.90
8043;DHT22;4064;48.132;11.366;2023-11-19T08:47:04;10.80;99.90
8043;DHT22;4064;48.132;11.366;2023-11-19T08:49:30;10.70;99.90
8043;DHT22;4064;48.132;11.366;2023-11-19T08:51:55;10.70;99.90
8043;DHT22;4064;48.132;11.366;2023-11-19T08:54:21;10.80;99.90
8043;DHT22;4064;48.132;11.366;2023-11-19T08:56:48;10.90;99.90
8043;DHT22;4064;48.132;11.366;2023-11-19T08:59:14;10.90;99.90
8043;DHT22;4064;48.132;11.366;2023-11-19T09:01:40;11.00;99.90
8043;DHT22;4064;48.132;11.366;2023-11-19T09:04:06;10.90;99.90
8043;DHT22;4064;48.132;11.366;2023-11-19T09:06:33;10.90;99.90
8043;DHT22;4064;48.132;11.366;2023-11-19T09:08:58;10.90;99.90
8043;DHT22;4064;48.132;11.366;2023-11-19T09:11:28;10.90;99.90
8043;DHT22;4064;48.132;11.366;2023-11-19T09:13:54;10.90;99.90
8043;DHT22;4064;48.132;11.366;2023-11-19T09:16:20;11.00;99.90
8043;DHT22;4064;48.132;11.366;2023-11-19T09:18:45;10.90;99.90
8043;DHT22;4064;48.132;11.366;2023-11-19T09:21:11;11.00;99.90
8043;DHT22;4064;48.132;11.366;2023-11-19T09:23:37;11.10;99.90
8043;DHT22;4064;48.132;11.366;2023-11-19T09:26:14;11.20;99.90
8043;DHT22;4064;48.132;11.366;2023-11-19T09:28:39;11.20;99.90
8043;DHT22;4064;48.132;11.366;2023-11-19T09:31:18;11.20;99.90
8043;DHT22;4064;48.132;11.366;2023-11-19T09:33:44;11.20;99.90
8043;DHT22;4064;48.132;11.366;2023-11-19T09:36:12;11.20;99.90
8043;DHT22;4064;48.132;11.366;2023-11-19T09:38:39;11.10;99.90
8043;DHT22;4064;48.132;11.366;2023-11-19T09:41:05;11.20;99.90
8043;DHT22;4064;48.132;11.366;2023-11-19T09:43:35;11.20;99.90
8043;DHT22;4064;48.132;11.366;2023-11-19T09:46:09;11.30;99.90
8043;DHT22;4064;48.132;11.366;2023-11-19T09:48:40;11.30;99.90
8043;DHT22;4064;48.132;11.366;2023-11-19T09:51:07;11.30;99.90
8043;DHT22;4064;48.132;11.366;2023-11-19T09:53:34;11.40;99.90
8043;DHT22;4064;48.132;11.366;2023-11-19T09:56:02;11.60;99.90
8043;DHT22;4064;48.132;11.366;2023-11-19T09:58:29;11.70;99.90
8043;DHT22;4064;48.132;11.366;2023-11-19T10:00:56;11.80;99.90
8043;DHT22;4064;48.132;11.366;2023-11-19T10:03:26;11.80;99.90
8043;DHT22;4064;48.132;11.366;2023-11-19T10:05:56;11.70;99.90
8043;DHT22;4064;48.132;11.366;2023-11-19T10:08:22;11.80;99.90
8043;DHT22;4064;48.132;11.366;2023-11-19T10:10:48;11.70;99.90
8043;DHT22;4064;48.132;11.366;2023-11-19T10:13:14;11.80;99.90
8043;DHT22;4064;48.132;11.366;2023-11-19T10:15:40;12.00;99.90
8043;DHT22;4064;48.132;11.366;2023-11-19T10:18:06;12.10;99.90
8043;DHT22;4064;48.132;11.366;2023-11-19T10:20:40;12.20;99.90
8043;DHT22;4064;48.132;11.366;2023-11-19T10:23:06;12.20;99.90
8043;DHT22;4064;48.132;11.366;2023-11-19T10:25:32;12.40;99.90
8043;DHT22;4064;48.132;11.366;2023-11-19T10:27:59;12.50;99.90
8043;DHT22;4064;48.132;11.366;2023-11-19T10:30:29;12.50;99.90
8043;DHT22;4064;48.132;11.366;2023-11-19T10:33:06;12.60;99.90
8043;DHT22;4064;48.132;11.366;2023-11-19T10:35:33;12.70;99.90
8043;DHT22;4064;48.132;11.366;2023-11-19T10:38:01;12.90;99.90
8043;DHT22;4064;48.132;11.366;2023-11-19T10:40:39;12.90;99.90
8043;DHT22;4064;48.132;11.366;2023-11-19T10:43:08;13.20;99.90
8043;DHT22;4064;48.132;11.366;2023-11-19T10:45:35;13.30;99.90
8043;DHT22;4064;48.132;11.366;2023-11-19T10:48:02;13.10;99.90
8043;DHT22;4064;48.132;11.366;2023-11-19T10:50:35;13.00;99.90
8043;DHT22;4064;48.132;11.366;2023-11-19T10:53:02;12.90;99.90
8043;DHT22;4064;48.132;11.366;2023-11-19T10:55:36;12.80;99.90
8043;DHT22;4064;48.132;11.366;2023-11-19T10:58:15;12.90;99.90
8043;DHT22;4064;48.132;11.366;2023-11-19T11:00:57;12.90;99.90
8043;DHT22;4064;48.132;11.366;2023-11-19T11:03:31;12.80;99.90
8043;DHT22;4064;48.132;11.366;2023-11-19T11:05:59;12.90;99.90
8043;DHT22;4064;48.132;11.366;2023-11-19T11:08:30;13.00;99.90
8043;DHT22;4064;48.132;11.366;2023-11-19T11:10:57;13.10;99.90
8043;DHT22;4064;48.132;11.366;2023-11-19T11:15:51;13.10;99.90
8043;DHT22;4064;48.132;11.366;2023-11-19T11:18:19;13.20;99.90
8043;DHT22;4064;48.132;11.366;2023-11-19T11:20:45;13.40;99.90
8043;DHT22;4064;48.132;11.366;2023-11-19T11:26:36;13.60;99.90
8043;DHT22;4064;48.132;11.366;2023-11-19T11:29:10;13.40;99.90
8043;DHT22;4064;48.132;11.366;2023-11-19T11:31:53;13.30;99.90
8043;DHT22;4064;48.132;11.366;2023-11-19T11:37:47;13.30;99.90
8043;DHT22;4064;48.132;11.366;2023-11-19T11:40:15;13.40;99.90
8043;DHT22;4064;48.132;11.366;2023-11-19T11:42:41;13.50;99.90
8043;DHT22;4064;48.132;11.366;2023-11-19T11:45:11;13.80;99.90
8043;DHT22;4064;48.132;11.366;2023-11-19T11:50:29;14.20;99.90
8043;DHT22;4064;48.132;11.366;2023-11-19T11:58:13;14.10;99.90
8043;DHT22;4064;48.132;11.366;2023-11-19T12:00:41;13.90;99.90
8043;DHT22;4064;48.132;11.366;2023-11-19T12:03:08;14.10;99.90
8043;DHT22;4064;48.132;11.366;2023-11-19T12:05:39;14.20;99.90
8043;DHT22;4064;48.132;11.366;2023-11-19T12:08:07;14.10;99.90
8043;DHT22;4064;48.132;11.366;2023-11-19T12:10:49;13.90;99.90
8043;DHT22;4064;48.132;11.366;2023-11-19T12:13:20;14.10;99.90
8043;DHT22;4064;48.132;11.366;2023-11-19T12:18:28;14.00;99.90
8043;DHT22;4064;48.132;11.366;2023-11-19T12:20:54;14.00;99.90
8043;DHT22;4064;48.132;11.366;2023-11-19T12:23:20;13.60;99.90
8043;DHT22;4064;48.132;11.366;2023-11-19T12:25:46;13.50;99.90
8043;DHT22;4064;48.132;11.366;2023-11-19T12:28:13;13.40;99.90
8043;DHT22;4064;48.132;11.366;2023-11-19T12:30:39;13.40;99.90
8043;DHT22;4064;48.132;11.366;2023-11-19T12:33:09;13.30;99.90
8043;DHT22;4064;48.132;11.366;2023-11-19T12:38:07;13.30;99.90
8043;DHT22;4064;48.132;11.366;2023-11-19T12:40:33;13.50;99.90
8043;DHT22;4064;48.132;11.366;2023-11-19T12:42:59;13.50;99.90
8043;DHT22;4064;48.132;11.366;2023-11-19T12:45:37;13.30;99.90
8043;DHT22;4064;48.132;11.366;2023-11-19T12:48:05;13.60;99.90
8043;DHT22;4064;48.132;11.366;2023-11-19T12:50:53;13.60;99.90
8043;DHT22;4064;48.132;11.366;2023-11-19T12:53:20;13.90;99.90
8043;DHT22;4064;48.132;11.366;2023-11-19T12:55:46;13.80;99.90
8043;DHT22;4064;48.132;11.366;2023-11-19T12:58:30;13.90;99.90
8043;DHT22;4064;48.132;11.366;2023-11-19T13:01:07;13.90;99.90
8043;DHT22;4064;48.132;11.366;2023-11-19T13:03:36;13.70;99.90
8043;DHT22;4064;48.132;11.366;2023-11-19T13:08:40;13.30;99.90
8043;DHT22;4064;48.132;11.366;2023-11-19T13:11:06;13.10;99.90
8043;DHT22;4064;48.132;11.366;2023-11-19T13:13:58;13.10;99.90
8043;DHT22;4064;48.132;11.366;2023-11-19T13:16:25;13.00;99.90
8043;DHT22;4064;48.132;11.366;2023-11-19T13:18:51;13.10;99.90
8043;DHT22;4064;48.132;11.366;2023-11-19T13:21:17;13.00;99.90
8043;DHT22;4064;48.132;11.366;2023-11-19T13:23:43;13.00;99.90
8043;DHT22;4064;48.132;11.366;2023-11-19T13:26:09;12.90;99.90
8043;DHT22;4064;48.132;11.366;2023-11-19T13:28:36;13.00;99.90
8043;DHT22;4064;48.132;11.366;2023-11-19T13:31:02;12.90;99.90
8043;DHT22;4064;48.132;11.366;2023-11-19T13:33:28;12.80;99.90
8043;DHT22;4064;48.132;11.366;2023-11-19T13:35:55;12.80;99.90
8043;DHT22;4064;48.132;11.366;2023-11-19T13:38:20;12.80;99.90
8043;DHT22;4064;48.132;11.366;2023-11-19T13:40:46;12.70;99.90
8043;DHT22;4064;48.132;11.366;2023-11-19T13:43:12;12.70;99.90
8043;DHT22;4064;48.132;11.366;2023-11-19T13:45:37;12.70;99.90
8043;DHT22;4064;48.132;11.366;2023-11-19T13:48:03;12.60;99.90
8043;DHT22;4064;48.132;11.366;2023-11-19T13:50:29;12.70;99.90
8043;DHT22;4064;48.132;11.366;2023-11-19T13:52:55;12.70;99.90
8043;DHT22;4064;48.132;11.366;2023-11-19T13:55:21;12.70;99.90
8043;DHT22;4064;48.132;11.366;2023-11-19T13:57:48;12.70;99.90
8043;DHT22;4064;48.132;11.366;2023-11-19T14:00:14;12.70;99.90
8043;DHT22;4064;48.132;11.366;2023-11-19T14:02:48;12.80;99.90
8043;DHT22;4064;48.132;11.366;2023-11-19T14:05:14;12.90;99.90
8043;DHT22;4064;48.132;11.366;2023-11-19T14:07:44;12.80;99.90
8043;DHT22;4064;48.132;11.366;2023-11-19T14:10:11;12.80;99.90
8043;DHT22;4064;48.132;11.366;2023-11-19T14:12:37;12.80;99.90
8043;DHT22;4064;48.132;11.366;2023-11-19T14:15:06;12.80;99.90
8043;DHT22;4064;48.132;11.366;2023-11-19T14:17:33;12.80;99.90
8043;DHT22;4064;48.132;11.366;2023-11-19T14:19:59;12.80;99.90
8043;DHT22;4064;48.132;11.366;2023-11-19T14:22:25;12.80;99.90
8043;DHT22;4064;48.132;11.366;2023-11-19T14:24:51;12.80;99.90
8043;DHT22;4064;48.132;11.366;2023-11-19T14:27:16;12.80;99.90
8043;DHT22;4064;48.132;11.366;2023-11-19T14:29:43;12.70;99.90
8043;DHT22;4064;48.132;11.366;2023-11-19T14:32:10;12.70;99.90
8043;DHT22;4064;48.132;11.366;2023-11-19T14:34:36;12.70;99.90
8043;DHT22;4064;48.132;11.366;2023-11-19T14:37:02;12.70;99.90
8043;DHT22;4064;48.132;11.366;2023-11-19T14:39:28;12.60;99.90
8043;DHT22;4064;48.132;11.366;2023-11-19T14:41:57;12.50;99.90
8043;DHT22;4064;48.132;11.366;2023-11-19T14:44:30;12.50;99.90
8043;DHT22;4064;48.132;11.366;2023-11-19T14:46:55;12.40;99.90
8043;DHT22;4064;48.132;11.366;2023-11-19T14:49:21;12.40;99.90
8043;DHT22;4064;48.132;11.366;2023-11-19T14:51:47;12.40;99.90
8043;DHT22;4064;48.132;11.366;2023-11-19T14:54:15;12.20;99.90
8043;DHT22;4064;48.132;11.366;2023-11-19T14:56:42;12.20;99.90
8043;DHT22;4064;48.132;11.366;2023-11-19T14:59:07;12.20;99.90
8043;DHT22;4064;48.132;11.366;2023-11-19T15:01:33;12.10;99.90
8043;DHT22;4064;48.132;11.366;2023-11-19T15:03:59;12.10;99.90
8043;DHT22;4064;48.132;11.366;2023-11-19T15:06:25;12.00;99.90
8043;DHT22;4064;48.132;11.366;2023-11-19T15:08:56;12.00;99.90
8043;DHT22;4064;48.132;11.366;2023-11-19T15:11:22;12.00;99.90
8043;DHT22;4064;48.132;11.366;2023-11-19T15:13:48;11.90;99.90
8043;DHT22;4064;48.132;11.366;2023-11-19T15:16:14;11.80;99.90
8043;DHT22;4064;48.132;11.366;2023-11-19T15:18:42;11.80;99.90
8043;DHT22;4064;48.132;11.366;2023-11-19T15:21:08;11.80;99.90
8043;DHT22;4064;48.132;11.366;2023-11-19T15:23:34;11.70;99.90
8043;DHT22;4064;48.132;11.366;2023-11-19T15:26:00;11.70;99.90
8043;DHT22;4064;48.132;11.366;2023-11-19T15:28:25;11.60;99.90
8043;DHT22;4064;48.132;11.366;2023-11-19T15:30:51;11.60;99.90
8043;DHT22;4064;48.132;11.366;2023-11-19T15:33:17;11.60;99.90
8043;DHT22;4064;48.132;11.366;2023-11-19T15:35:43;11.50;99.90
8043;DHT22;4064;48.132;11.366;2023-11-19T15:38:08;11.40;99.90
8043;DHT22;4064;48.132;11.366;2023-11-19T15:40:38;11.40;99.90
8043;DHT22;4064;48.132;11.366;2023-11-19T15:43:04;11.30;99.90
8043;DHT22;4064;48.132;11.366;2023-11-19T15:45:32;11.30;99.90
8043;DHT22;4064;48.132;11.366;2023-11-19T15:48:03;11.20;99.90
8043;DHT22;4064;48.132;11.366;2023-11-19T15:50:29;11.20;99.90
8043;DHT22;4064;48.132;11.366;2023-11-19T15:52:55;11.20;99.90
8043;DHT22;4064;48.132;11.366;2023-11-19T15:55:20;11.20;99.90
8043;DHT22;4064;48.132;11.366;2023-11-19T15:57:46;11.10;99.90
8043;DHT22;4064;48.132;11.366;2023-11-19T16:00:12;11.10;99.90
8043;DHT22;4064;48.132;11.366;2023-11-19T16:02:42;11.10;99.90
8043;DHT22;4064;48.132;11.366;2023-11-19T16:05:08;11.20;99.90
8043;DHT22;4064;48.132;11.366;2023-11-19T16:07:37;11.10;99.90
8043;DHT22;4064;48.132;11.366;2023-11-19T16:10:03;11.10;99.90
8043;DHT22;4064;48.132;11.366;2023-11-19T16:12:30;11.00;99.90
8043;DHT22;4064;48.132;11.366;2023-11-19T16:14:55;11.10;99.90
8043;DHT22;4064;48.132;11.366;2023-11-19T16:17:21;11.00;99.90
8043;DHT22;4064;48.132;11.366;2023-11-19T16:19:49;11.00;99.90